This is the latest recevied weather packets stored in our database for station/object Seibranz. If no packets are shown the sender has not sent any weather packets the latest 1 day(s).
| Time | Temp. | Humidity | Pressure | Rain* | Wind** | Luminosity | Snow |
|---|---|---|---|---|---|---|---|
| 1836273905 | 14.44° C | 80% | 1021.1 hPa | 0 mm | 3.13 m/s, 190° | - | - |
| 1778016731 | 8.89° C | 92% | 1008.7 hPa | 2.29 mm | 4.47 m/s, 179° | - | - |
| 1778014935 | 8.89° C | 92% | 1008.8 hPa | 2.29 mm | 4.47 m/s, 180° | - | - |
| 1778013129 | 9.44° C | 91% | 1008.7 hPa | 2.29 mm | 4.02 m/s, 177° | - | - |
| 1778011330 | 10° C | 91% | 1008.8 hPa | 2.29 mm | 4.02 m/s, 205° | - | - |
| 1778009529 | 10.56° C | 87% | 1008.6 hPa | 1.27 mm | 6.71 m/s, 210° | - | - |
| 1778007735 | 12.78° C | 83% | 1008 hPa | 0.51 mm | 8.94 m/s, 215° | - | - |
| 1778005932 | 12.78° C | 87% | 1007.1 hPa | 0.51 mm | 4.92 m/s, 232° | - | - |
| 1778004131 | 12.78° C | 87% | 1007 hPa | 0.51 mm | 3.58 m/s, 177° | - | - |
| 1778002330 | 13.33° C | 84% | 1006.9 hPa | 0.51 mm | 4.47 m/s, 211° | - | - |
| 1778000530 | 14.44° C | 79% | 1006.3 hPa | 0.51 mm | 1.34 m/s, 234° | - | - |
| 1777998731 | 14.44° C | 82% | 1006 hPa | 0.51 mm | 2.24 m/s, 17° | - | - |
| 1777995130 | 15° C | 75% | 1006.7 hPa | 0.25 mm | 4.02 m/s, 270° | - | - |
| 1777993336 | 16.11° C | 68% | 1006.4 hPa | 0.25 mm | 3.13 m/s, 312° | - | - |
| 1777991532 | 16.11° C | 68% | 1006.2 hPa | 0.25 mm | 4.02 m/s, 0° | - | - |
| 1777989730 | 15.56° C | 68% | 1006.4 hPa | 0.25 mm | 5.36 m/s, 293° | - | - |
| 1777987930 | 15.56° C | 71% | 1006.5 hPa | 0.25 mm | 2.24 m/s, 290° | - | - |
| 1777986130 | 15° C | 81% | 1006.6 hPa | 0.25 mm | 3.13 m/s, 274° | - | - |
| 1777984330 | 14.44° C | 85% | 1006.6 hPa | 0.25 mm | 3.13 m/s, 317° | - | - |
| 1777982530 | 13.33° C | 87% | 1006.9 hPa | 0.25 mm | 3.13 m/s, 236° | - | - |
| 1777980730 | 13.33° C | 86% | 1007.1 hPa | 0.25 mm | 3.58 m/s, 174° | - | - |
| 1777978931 | 14.44° C | 83% | 1007 hPa | 0 mm | 4.92 m/s, 219° | - | - |
| 1777977131 | 15° C | 77% | 1007 hPa | 0 mm | 4.02 m/s, 233° | - | - |
| 1777975332 | 15° C | 68% | 1006.9 hPa | 0 mm | 4.02 m/s, 225° | - | - |
| 1777973532 | 15.56° C | 68% | 1007 hPa | 0 mm | 4.02 m/s, 234° | - | - |
* Rain since midnight (hover to see other rain measurements)
** Current wind speed in m/s (hover to see current wind gust speed)